Time;durP1;ratioP1;P1;durP2;ratioP2;P2;SDS_P1;SDS_P2;PMS_P1;PMS_P2;Temp;Humidity;BMP_temperature;BMP_pressure;BME280_temperature;BME280_humidity;BME280_pressure;Samples;Min_cycle;Max_cycle;Signal;HPM_P1;HPM_P2
2022/06/04 00:02:05;;;;;;;12.57;8.60;;;13.20;99.90;;;;;;5078409;28;20555;-68
2022/06/04 00:04:31;;;;;;;11.85;9.10;;;13.20;99.90;;;;;;5098609;28;20502;-68
2022/06/04 00:06:57;;;;;;;13.45;8.30;;;13.20;99.90;;;;;;5088611;28;20121;-69
2022/06/04 00:09:24;;;;;;;14.55;8.93;;;13.20;99.90;;;;;;5085503;28;20611;-68
2022/06/04 00:17:20;;;;;;;12.40;8.93;;;13.00;99.90;;;;;;5089224;28;20518;-68
2022/06/04 00:19:45;;;;;;;16.23;9.68;;;13.10;99.90;;;;;;5083562;28;20035;-68
2022/06/04 00:22:12;;;;;;;15.88;9.10;;;13.00;99.90;;;;;;5112614;28;20036;-68
2022/06/04 00:24:37;;;;;;;12.35;9.00;;;13.00;99.90;;;;;;5106902;28;20562;-69
2022/06/04 00:27:03;;;;;;;15.02;9.20;;;13.00;99.90;;;;;;5093551;28;20054;-69
2022/06/04 00:29:31;;;;;;;15.18;9.30;;;12.90;99.90;;;;;;5081964;28;20055;-68
2022/06/04 00:31:57;;;;;;;14.88;9.38;;;12.90;99.90;;;;;;5099311;28;20511;-68
2022/06/04 00:34:24;;;;;;;15.00;9.05;;;12.90;99.90;;;;;;5102462;28;20032;-68
2022/06/04 00:36:49;;;;;;;14.95;9.50;;;12.90;99.90;;;;;;5110844;28;20636;-68
2022/06/04 00:39:15;;;;;;;15.07;9.50;;;12.90;99.90;;;;;;5108335;28;20138;-68
2022/06/04 00:41:59;;;;;;;15.52;9.02;;;12.80;99.90;;;;;;5112504;28;20042;-68
2022/06/04 00:44:31;;;;;;;17.27;9.00;;;12.80;99.90;;;;;;5109605;28;20063;-68
2022/06/04 00:47:13;;;;;;;13.25;8.70;;;12.80;99.90;;;;;;5109560;28;20093;-68
2022/06/04 00:49:39;;;;;;;13.90;8.88;;;12.80;99.90;;;;;;5096384;28;20036;-68
2022/06/04 00:52:10;;;;;;;13.23;8.90;;;12.80;99.90;;;;;;5110941;28;20085;-68
2022/06/04 00:54:36;;;;;;;15.48;9.55;;;12.80;99.90;;;;;;5103761;28;20047;-68
2022/06/04 00:57:43;;;;;;;14.07;8.88;;;12.70;99.90;;;;;;5111871;28;20047;-68
2022/06/04 01:00:22;;;;;;;16.23;9.40;;;12.70;99.90;;;;;;5014044;28;20046;-69
2022/06/04 01:03:20;;;;;;;16.55;8.48;;;12.70;99.90;;;;;;5091251;28;20062;-68
2022/06/04 01:06:19;;;;;;;13.43;9.20;;;12.70;99.90;;;;;;5096336;28;20444;-68
2022/06/04 01:09:08;;;;;;;12.63;9.23;;;12.70;99.90;;;;;;5090232;28;20056;-68
2022/06/04 01:12:10;;;;;;;13.85;8.50;;;12.70;99.90;;;;;;5091688;28;20562;-68
2022/06/04 01:15:00;;;;;;;16.40;9.25;;;12.60;99.90;;;;;;5100270;28;20093;-68
2022/06/04 01:17:43;;;;;;;14.15;9.18;;;12.60;99.90;;;;;;5092747;28;20128;-68
2022/06/04 01:20:28;;;;;;;16.90;9.75;;;12.60;99.90;;;;;;5107281;28;20043;-68
2022/06/04 01:23:01;;;;;;;16.25;9.80;;;12.50;99.90;;;;;;5093742;28;20047;-68
2022/06/04 01:25:46;;;;;;;15.73;9.05;;;12.50;99.90;;;;;;5109845;28;20144;-69
2022/06/04 01:28:16;;;;;;;12.85;9.05;;;12.40;99.90;;;;;;5088367;28;20441;-69
2022/06/04 01:30:46;;;;;;;15.20;9.50;;;12.50;99.90;;;;;;5109500;28;20130;-68
2022/06/04 01:33:29;;;;;;;16.15;10.00;;;12.50;99.90;;;;;;5082508;28;20054;-69
2022/06/04 01:36:06;;;;;;;14.30;9.93;;;12.40;99.90;;;;;;5102970;28;20509;-68
2022/06/04 01:38:49;;;;;;;16.47;10.37;;;12.40;99.90;;;;;;5087892;28;20055;-68
2022/06/04 01:41:34;;;;;;;15.40;9.98;;;12.40;99.90;;;;;;5108771;28;20062;-68
2022/06/04 01:44:06;;;;;;;17.27;10.07;;;12.40;99.90;;;;;;5110156;28;20526;-68
2022/06/04 01:46:35;;;;;;;13.93;10.18;;;12.30;99.90;;;;;;5084387;28;20048;-68
2022/06/04 01:49:13;;;;;;;16.15;10.48;;;12.30;99.90;;;;;;5106582;28;20046;-68
2022/06/04 01:51:39;;;;;;;16.88;10.50;;;12.30;99.90;;;;;;5108497;28;20040;-68
2022/06/04 01:54:14;;;;;;;14.30;9.98;;;12.30;99.90;;;;;;5108398;28;20126;-68
2022/06/04 01:56:48;;;;;;;14.50;10.15;;;12.20;99.90;;;;;;5092610;28;20343;-69
2022/06/04 01:59:18;;;;;;;18.77;10.80;;;12.20;99.90;;;;;;5074820;28;20069;-68
2022/06/04 02:01:46;;;;;;;15.80;10.70;;;12.30;99.90;;;;;;5108721;28;20147;-68
2022/06/04 02:04:19;;;;;;;15.93;10.45;;;12.30;99.90;;;;;;5091203;28;20031;-68
2022/06/04 02:09:44;;;;;;;16.02;10.02;;;12.30;99.90;;;;;;5109933;28;20043;-68
2022/06/04 02:12:12;;;;;;;14.75;10.20;;;12.30;99.90;;;;;;5100625;28;20044;-68
2022/06/04 02:14:40;;;;;;;15.18;10.18;;;12.30;99.90;;;;;;5108836;28;20501;-68
2022/06/04 02:17:09;;;;;;;18.05;11.50;;;12.30;99.90;;;;;;5098144;28;20035;-68
2022/06/04 02:19:35;;;;;;;19.35;11.00;;;12.20;99.90;;;;;;5076853;28;20097;-68
2022/06/04 02:22:02;;;;;;;15.02;9.98;;;12.30;99.90;;;;;;5104885;28;20035;-68
2022/06/04 02:24:28;;;;;;;15.23;10.50;;;12.20;99.90;;;;;;5101346;28;20436;-69
2022/06/04 02:26:54;;;;;;;19.10;10.88;;;12.20;99.90;;;;;;5086547;28;20089;-69
2022/06/04 02:29:20;;;;;;;17.25;10.80;;;12.20;99.90;;;;;;5106168;28;20583;-69
2022/06/04 02:32:07;;;;;;;18.08;11.30;;;12.10;99.90;;;;;;5089919;28;20043;-69
2022/06/04 02:34:44;;;;;;;15.98;11.70;;;12.10;99.90;;;;;;5109661;28;20046;-69
2022/06/04 02:37:45;;;;;;;19.05;11.93;;;12.10;99.90;;;;;;5107439;28;20039;-69
2022/06/04 02:40:20;;;;;;;16.98;11.27;;;12.00;99.90;;;;;;5093694;28;20050;-69
2022/06/04 02:42:54;;;;;;;17.70;12.10;;;12.00;99.90;;;;;;5108853;28;20126;-69
2022/06/04 02:45:40;;;;;;;20.40;12.05;;;12.00;99.90;;;;;;5106492;28;20036;-69
2022/06/04 02:48:21;;;;;;;15.30;10.95;;;11.90;99.90;;;;;;5101942;28;20043;-69
2022/06/04 02:50:53;;;;;;;17.63;11.57;;;11.90;99.90;;;;;;5108592;28;20044;-69
2022/06/04 02:53:19;;;;;;;21.85;12.25;;;11.90;99.90;;;;;;5087254;28;20039;-69
2022/06/04 02:55:52;;;;;;;21.75;12.68;;;11.90;99.90;;;;;;5105477;28;20498;-69
2022/06/04 02:58:21;;;;;;;18.48;12.35;;;11.90;99.90;;;;;;5107817;28;20521;-69
2022/06/04 03:00:49;;;;;;;18.33;12.30;;;11.80;99.90;;;;;;5090644;28;20051;-69
2022/06/04 03:03:18;;;;;;;15.45;11.95;;;11.80;99.90;;;;;;5082670;28;20043;-69
2022/06/04 03:05:59;;;;;;;16.90;13.00;;;11.70;99.90;;;;;;5097939;28;20394;-69
2022/06/04 03:08:27;;;;;;;17.73;12.68;;;11.80;99.90;;;;;;5089820;28;20044;-69
2022/06/04 03:10:53;;;;;;;15.48;11.88;;;11.70;99.90;;;;;;5107931;28;20051;-69
2022/06/04 03:13:20;;;;;;;20.67;12.95;;;11.70;99.90;;;;;;5100417;28;20048;-69
2022/06/04 03:15:46;;;;;;;18.02;12.45;;;11.70;99.90;;;;;;5097541;28;20040;-69
2022/06/04 03:18:11;;;;;;;18.38;12.88;;;11.70;99.90;;;;;;5100887;28;20115;-69
2022/06/04 03:20:37;;;;;;;20.52;13.52;;;11.60;99.90;;;;;;5071697;28;20048;-69
2022/06/04 03:23:03;;;;;;;19.13;13.88;;;11.60;99.90;;;;;;5105100;28;20039;-69
2022/06/04 03:25:30;;;;;;;20.42;13.00;;;11.60;99.90;;;;;;5107914;28;20516;-69
2022/06/04 03:27:56;;;;;;;19.25;13.02;;;11.60;99.90;;;;;;5080769;28;20055;-69
2022/06/04 03:30:21;;;;;;;20.15;13.07;;;11.60;99.90;;;;;;5098326;28;20059;-69
2022/06/04 03:32:47;;;;;;;17.55;13.10;;;11.60;99.90;;;;;;5101610;28;20039;-69
2022/06/04 03:35:14;;;;;;;17.85;12.55;;;11.60;99.90;;;;;;5108398;28;20046;-69
2022/06/04 03:37:39;;;;;;;17.17;12.95;;;11.60;99.90;;;;;;5106592;28;20047;-69
2022/06/04 03:40:06;;;;;;;19.23;12.77;;;11.60;99.90;;;;;;5109239;28;20463;-69
2022/06/04 03:42:32;;;;;;;22.27;12.57;;;11.50;99.90;;;;;;5088707;28;20071;-69
2022/06/04 03:44:57;;;;;;;18.00;12.80;;;11.50;99.90;;;;;;5109267;28;20494;-69
2022/06/04 03:47:25;;;;;;;19.85;12.27;;;11.50;99.90;;;;;;5106913;28;20058;-69
2022/06/04 03:49:50;;;;;;;;;;;11.60;99.90;;;;;;5092205;28;20051;-69
2022/06/04 03:52:16;;;;;;;17.23;12.35;;;11.50;99.90;;;;;;5090167;28;20125;-69
2022/06/04 03:54:54;;;;;;;19.20;12.80;;;11.50;99.90;;;;;;5108612;28;20437;-69
2022/06/04 03:57:38;;;;;;;18.20;12.93;;;11.60;99.90;;;;;;5093913;28;20101;-69
2022/06/04 04:00:15;;;;;;;20.60;13.18;;;11.60;99.90;;;;;;5089310;28;20123;-69
2022/06/04 04:02:43;;;;;;;17.42;12.15;;;11.60;99.90;;;;;;5092237;28;20463;-69
2022/06/04 04:05:10;;;;;;;;;;;11.60;99.90;;;;;;5093619;28;20046;-69
2022/06/04 04:07:36;;;;;;;15.98;12.05;;;11.50;99.90;;;;;;5105960;28;20007;-69
2022/06/04 04:10:02;;;;;;;20.45;11.80;;;11.50;99.90;;;;;;5090498;28;20081;-69
2022/06/04 04:12:28;;;;;;;17.23;12.00;;;11.60;99.90;;;;;;5102433;28;20051;-69
2022/06/04 04:14:54;;;;;;;19.42;12.20;;;11.60;99.90;;;;;;5080768;28;20040;-69
2022/06/04 04:17:22;;;;;;;18.85;13.48;;;11.60;99.90;;;;;;5105622;28;20410;-69
2022/06/04 04:19:48;;;;;;;17.70;11.70;;;11.60;99.90;;;;;;5096048;28;20119;-69
2022/06/04 04:22:14;;;;;;;14.63;11.43;;;11.60;99.90;;;;;;5088647;28;20475;-69
2022/06/04 04:24:43;;;;;;;16.10;12.23;;;11.70;99.90;;;;;;5105705;28;20144;-69
2022/06/04 04:27:09;;;;;;;16.08;11.65;;;11.70;99.90;;;;;;5101775;28;20036;-69
2022/06/04 04:29:34;;;;;;;16.77;12.20;;;11.70;99.90;;;;;;5075363;28;20415;-69
2022/06/04 04:32:00;;;;;;;17.92;11.95;;;11.80;99.90;;;;;;5078539;28;20047;-68
2022/06/04 04:34:26;;;;;;;18.17;12.32;;;11.80;99.90;;;;;;5106101;28;20027;-69
2022/06/04 04:36:52;;;;;;;16.17;12.18;;;11.80;99.90;;;;;;5099656;28;20405;-69
2022/06/04 04:39:17;;;;;;;15.90;12.02;;;11.90;99.90;;;;;;5107297;28;20027;-69
2022/06/04 04:41:43;;;;;;;16.25;11.30;;;11.90;99.90;;;;;;5096824;28;20057;-69
2022/06/04 04:44:09;;;;;;;18.63;11.90;;;11.90;99.90;;;;;;5090935;28;20055;-69
2022/06/04 04:46:34;;;;;;;15.90;11.07;;;11.90;99.90;;;;;;5103933;28;20051;-69
2022/06/04 04:49:00;;;;;;;16.92;11.73;;;11.90;99.90;;;;;;5106929;28;20445;-70
2022/06/04 04:51:26;;;;;;;15.60;10.77;;;12.00;99.90;;;;;;5107066;28;20091;-70
2022/06/04 04:53:53;;;;;;;16.98;11.43;;;12.10;99.90;;;;;;5106021;28;20040;-69
2022/06/04 04:56:22;;;;;;;17.40;11.50;;;12.10;99.90;;;;;;5093188;28;20035;-69
2022/06/04 04:58:48;;;;;;;14.23;11.13;;;12.20;99.90;;;;;;5104828;28;20505;-69
2022/06/04 05:01:25;;;;;;;16.30;10.85;;;12.20;99.90;;;;;;5088191;28;20043;-69
2022/06/04 05:03:52;;;;;;;16.00;11.00;;;12.20;99.90;;;;;;5091178;28;20076;-69
2022/06/04 05:06:19;;;;;;;12.05;10.65;;;12.30;99.90;;;;;;5102544;28;20036;-69
2022/06/04 05:08:46;;;;;;;15.50;11.05;;;12.40;99.90;;;;;;5100203;28;20075;-69
2022/06/04 05:11:16;;;;;;;14.27;11.15;;;12.50;99.90;;;;;;5112180;28;20494;-70
2022/06/04 05:13:42;;;;;;;16.75;11.55;;;12.50;99.90;;;;;;5110479;28;20039;-69
2022/06/04 05:16:08;;;;;;;13.13;10.40;;;12.50;99.90;;;;;;5086530;28;20031;-69
2022/06/04 05:18:34;;;;;;;15.52;10.88;;;12.60;99.90;;;;;;5099245;28;20032;-69
2022/06/04 05:21:24;;;;;;;17.00;10.85;;;12.60;99.90;;;;;;5109937;28;20039;-69
2022/06/04 05:23:50;;;;;;;14.68;10.68;;;12.70;99.90;;;;;;5093973;28;20087;-69
2022/06/04 05:26:17;;;;;;;16.15;10.07;;;12.80;99.90;;;;;;5092077;28;20505;-70
2022/06/04 05:28:43;;;;;;;14.13;10.75;;;12.90;99.90;;;;;;5101966;28;20383;-69
2022/06/04 05:31:10;;;;;;;15.63;10.27;;;12.90;99.90;;;;;;5091966;28;20100;-69
2022/06/04 05:33:36;;;;;;;14.15;10.38;;;13.00;99.90;;;;;;5092686;28;20047;-69
2022/06/04 05:36:03;;;;;;;16.13;10.48;;;13.00;99.90;;;;;;5090515;28;20469;-69
2022/06/04 05:38:28;;;;;;;16.17;10.10;;;13.10;99.90;;;;;;5106911;28;20134;-69
2022/06/04 05:40:59;;;;;;;13.88;10.43;;;13.20;99.90;;;;;;5110657;28;20111;-69
2022/06/04 05:43:24;;;;;;;15.27;10.55;;;13.30;99.90;;;;;;5091554;28;20505;-70
2022/06/04 05:46:00;;;;;;;15.38;10.77;;;13.30;99.90;;;;;;5091952;28;20122;-70
2022/06/04 05:48:29;;;;;;;13.05;10.05;;;13.30;99.90;;;;;;5076207;28;20047;-68
2022/06/04 05:50:55;;;;;;;14.90;10.40;;;13.40;99.90;;;;;;5094264;28;20079;-68
2022/06/04 05:53:22;;;;;;;15.20;10.30;;;13.40;99.90;;;;;;5075788;28;20048;-69
2022/06/04 05:55:48;;;;;;;13.27;10.10;;;13.50;99.90;;;;;;5104168;28;20040;-69
2022/06/04 05:58:14;;;;;;;14.30;10.23;;;13.50;99.90;;;;;;5096526;28;20349;-69
2022/06/04 06:00:41;;;;;;;14.73;10.32;;;13.60;99.90;;;;;;5107078;28;20132;-68
2022/06/04 06:03:07;;;;;;;16.23;9.95;;;13.60;99.90;;;;;;5098657;28;20513;-69
2022/06/04 06:05:33;;;;;;;12.95;9.85;;;13.70;99.90;;;;;;5080010;28;20118;-69
2022/06/04 06:07:59;;;;;;;14.30;10.45;;;13.70;99.90;;;;;;5105821;28;20054;-69
2022/06/04 06:10:24;;;;;;;13.45;10.93;;;13.70;99.90;;;;;;5099707;28;20043;-70
2022/06/04 06:12:50;;;;;;;15.68;9.77;;;13.80;99.90;;;;;;5079113;28;20823;-69
2022/06/04 06:15:16;;;;;;;12.65;10.40;;;13.80;99.90;;;;;;5107611;28;20040;-69
2022/06/04 06:17:41;;;;;;;13.05;9.20;;;13.80;99.90;;;;;;5088131;28;20047;-69
2022/06/04 06:20:08;;;;;;;14.82;9.80;;;13.90;99.90;;;;;;5106985;28;20043;-70
2022/06/04 06:22:35;;;;;;;14.30;9.73;;;13.90;99.90;;;;;;5099360;28;20040;-70
2022/06/04 06:25:05;;;;;;;14.68;9.75;;;14.00;99.90;;;;;;5101156;28;20107;-70
2022/06/04 06:27:31;;;;;;;14.18;9.35;;;14.00;99.90;;;;;;5084195;28;20043;-70
2022/06/04 06:29:57;;;;;;;12.32;9.18;;;14.10;99.90;;;;;;5090039;28;20032;-70
2022/06/04 06:32:24;;;;;;;15.25;9.52;;;14.10;99.90;;;;;;5098650;28;20079;-70
2022/06/04 06:34:50;;;;;;;13.88;9.20;;;14.10;99.90;;;;;;5094580;28;20138;-69
2022/06/04 06:37:16;;;;;;;10.57;9.20;;;14.20;99.90;;;;;;5094306;28;20048;-70
2022/06/04 06:39:42;;;;;;;12.55;9.07;;;14.30;99.90;;;;;;5085740;28;20035;-70
2022/06/04 06:42:08;;;;;;;14.38;9.10;;;14.40;99.90;;;;;;5109901;28;20043;-70
2022/06/04 06:44:34;;;;;;;11.57;9.63;;;14.50;99.90;;;;;;5099740;28;20050;-69
2022/06/04 06:46:59;;;;;;;13.10;9.50;;;14.50;99.90;;;;;;5084314;28;20039;-70
2022/06/04 06:49:28;;;;;;;15.40;8.80;;;14.60;99.90;;;;;;5095124;28;20067;-70
2022/06/04 06:51:59;;;;;;;15.63;8.27;;;14.60;99.90;;;;;;5070992;28;20409;-67
2022/06/04 06:54:27;;;;;;;10.25;8.43;;;14.70;99.90;;;;;;5094405;28;20036;-70
2022/06/04 06:56:56;;;;;;;12.63;8.63;;;14.80;99.90;;;;;;5095423;28;20042;-70
2022/06/04 06:59:23;;;;;;;11.05;8.50;;;14.80;99.90;;;;;;5078782;28;20119;-70
2022/06/04 07:01:50;;;;;;;11.40;8.43;;;14.90;99.90;;;;;;5099417;28;20048;-71
2022/06/04 07:04:16;;;;;;;11.80;8.57;;;15.00;99.90;;;;;;5092595;28;20043;-70
2022/06/04 07:06:45;;;;;;;13.05;8.60;;;15.00;99.90;;;;;;5101341;28;20494;-70
2022/06/04 07:09:26;;;;;;;11.82;8.32;;;15.10;99.90;;;;;;5092205;28;20498;-71
2022/06/04 07:11:52;;;;;;;12.27;8.57;;;15.10;99.90;;;;;;5086865;28;20043;-71
2022/06/04 07:14:19;;;;;;;10.05;8.60;;;15.10;99.90;;;;;;5104221;28;20494;-70
2022/06/04 07:16:45;;;;;;;12.27;8.00;;;15.10;99.90;;;;;;5098893;28;20036;-71
2022/06/04 07:19:13;;;;;;;10.77;7.82;;;15.20;99.90;;;;;;5079494;28;20052;-71
2022/06/04 07:21:39;;;;;;;9.90;7.85;;;15.20;99.90;;;;;;5079569;28;20035;-69
2022/06/04 07:24:06;;;;;;;10.45;7.78;;;15.30;99.90;;;;;;5074972;28;20111;-71
2022/06/04 07:26:35;;;;;;;10.65;7.80;;;15.30;99.90;;;;;;5105676;28;20043;-70
2022/06/04 07:29:01;;;;;;;12.60;8.25;;;15.50;99.90;;;;;;5102374;28;20414;-71
2022/06/04 07:31:29;;;;;;;10.45;8.15;;;15.60;99.90;;;;;;5097405;28;20036;-74
2022/06/04 07:33:56;;;;;;;10.30;8.18;;;15.70;99.90;;;;;;5079055;28;20038;-71
2022/06/04 07:36:37;;;;;;;11.30;8.13;;;15.70;99.90;;;;;;5105692;28;20039;-71
2022/06/04 07:39:04;;;;;;;9.88;7.28;;;15.70;99.90;;;;;;5083408;28;20052;-70
2022/06/04 07:41:38;;;;;;;9.38;7.00;;;15.70;99.90;;;;;;5070504;28;20067;-71
2022/06/04 07:44:15;;;;;;;10.85;7.85;;;15.80;99.90;;;;;;5071171;28;20047;-71
2022/06/04 07:46:43;;;;;;;10.60;7.78;;;15.80;99.90;;;;;;5088388;28;20710;-71
2022/06/04 07:49:11;;;;;;;10.80;7.55;;;15.90;99.90;;;;;;5092450;28;20275;-71
2022/06/04 07:51:40;;;;;;;8.20;7.13;;;16.00;99.90;;;;;;5088198;28;20573;-71
2022/06/04 07:54:10;;;;;;;10.27;7.20;;;16.10;99.90;;;;;;5090042;28;20059;-71
2022/06/04 07:56:37;;;;;;;11.77;6.97;;;16.20;99.90;;;;;;5078393;28;20094;-71
2022/06/04 07:59:04;;;;;;;9.98;6.93;;;16.30;99.90;;;;;;5106739;28;20058;-71
2022/06/04 08:01:30;;;;;;;10.00;7.00;;;16.40;99.90;;;;;;5103151;28;20043;-70
2022/06/04 08:03:56;;;;;;;10.05;7.10;;;16.50;99.90;;;;;;5085431;28;20081;-70
2022/06/04 08:06:22;;;;;;;9.65;7.50;;;16.60;99.90;;;;;;5073008;28;20040;-71
2022/06/04 08:08:50;;;;;;;8.77;6.73;;;16.60;99.90;;;;;;5087636;28;20545;-70
2022/06/04 08:11:32;;;;;;;8.55;6.60;;;16.60;99.90;;;;;;5107573;28;20044;-70
2022/06/04 08:14:04;;;;;;;8.32;6.45;;;16.70;99.90;;;;;;5089306;28;20075;-70
2022/06/04 08:16:30;;;;;;;8.02;6.55;;;16.70;99.90;;;;;;5082819;28;20052;-71
2022/06/04 08:18:56;;;;;;;8.60;6.78;;;16.80;99.90;;;;;;5093096;28;20043;-72
2022/06/04 08:21:21;;;;;;;9.30;6.97;;;16.80;99.90;;;;;;5104761;28;20036;-73
2022/06/04 08:23:48;;;;;;;9.25;6.97;;;16.90;99.90;;;;;;5104970;28;20104;-71
2022/06/04 08:26:14;;;;;;;10.02;7.57;;;17.00;99.90;;;;;;5100312;28;20041;-69
2022/06/04 08:28:40;;;;;;;9.65;7.38;;;17.10;99.90;;;;;;5088243;28;20044;-70
2022/06/04 08:31:09;;;;;;;8.88;6.80;;;17.20;99.90;;;;;;5098219;28;20051;-70
2022/06/04 08:33:36;;;;;;;8.25;6.70;;;17.20;99.90;;;;;;5099430;28;20509;-70
2022/06/04 08:36:06;;;;;;;9.23;7.25;;;17.20;99.90;;;;;;5079155;28;20113;-70
2022/06/04 08:38:32;;;;;;;9.20;6.88;;;17.20;99.90;;;;;;5079952;28;20044;-70
2022/06/04 08:41:00;;;;;;;8.98;6.75;;;17.30;99.90;;;;;;5107261;28;20043;-72
2022/06/04 08:43:51;;;;;;;8.73;7.32;;;17.30;99.90;;;;;;5111909;28;20043;-71
2022/06/04 08:46:30;;;;;;;11.00;7.15;;;17.30;99.90;;;;;;5076761;28;20071;-69
2022/06/04 08:49:01;;;;;;;9.50;7.65;;;17.20;99.90;;;;;;5074719;28;20213;-71
2022/06/04 08:51:29;;;;;;;11.10;7.57;;;17.20;99.90;;;;;;5097001;28;20138;-71
2022/06/04 08:53:56;;;;;;;9.80;8.05;;;17.20;99.90;;;;;;5084056;28;20100;-73
2022/06/04 08:59:25;;;;;;;10.77;7.68;;;17.20;99.90;;;;;;5085780;28;20048;-70
2022/06/04 09:01:56;;;;;;;13.95;8.02;;;17.30;99.90;;;;;;5106165;28;20452;-70
2022/06/04 09:04:42;;;;;;;13.32;8.07;;;17.30;99.90;;;;;;5094796;28;20047;-72
2022/06/04 09:07:20;;;;;;;10.95;7.65;;;17.50;99.90;;;;;;5088669;28;20044;-70
2022/06/04 09:09:57;;;;;;;10.57;8.32;;;17.60;99.90;;;;;;5110653;28;20436;-72
2022/06/04 09:12:43;;;;;;;11.50;8.07;;;17.60;99.90;;;;;;5086899;28;20051;-71
2022/06/04 09:15:20;;;;;;;9.80;8.00;;;17.70;99.90;;;;;;5084338;28;20159;-74
2022/06/04 09:17:51;;;;;;;10.95;8.10;;;17.80;99.90;;;;;;5091386;28;20391;-71
2022/06/04 09:20:40;;;;;;;12.38;8.25;;;17.90;99.90;;;;;;5103560;28;21074;-72
2022/06/04 09:23:35;;;;;;;10.40;7.88;;;17.90;99.90;;;;;;5110119;28;20043;-72
2022/06/04 09:26:13;;;;;;;10.38;8.27;;;18.00;99.90;;;;;;5092826;28;20058;-73
2022/06/04 09:28:57;;;;;;;12.05;8.35;;;18.00;99.90;;;;;;5091886;28;20130;-73
2022/06/04 09:31:52;;;;;;;9.73;7.35;;;18.00;99.90;;;;;;5111321;28;20086;-72
2022/06/04 09:34:40;;;;;;;9.80;7.90;;;18.00;99.90;;;;;;5090763;28;20539;-72
2022/06/04 09:37:08;;;;;;;12.85;7.78;;;18.10;99.90;;;;;;5091613;28;20054;-72
2022/06/04 09:39:36;;;;;;;12.10;7.70;;;18.00;99.90;;;;;;5092304;28;20047;-72
2022/06/04 09:42:06;;;;;;;9.27;7.93;;;18.00;99.90;;;;;;5091323;28;20040;-72
2022/06/04 09:44:37;;;;;;;9.50;7.80;;;18.00;99.90;;;;;;5108280;28;20035;-72
2022/06/04 09:47:06;;;;;;;10.70;8.07;;;18.10;99.90;;;;;;5093526;28;20135;-72
2022/06/04 09:49:34;;;;;;;9.20;7.38;;;18.10;99.90;;;;;;5100056;28;20039;-71
2022/06/04 09:52:18;;;;;;;16.65;7.68;;;18.10;99.90;;;;;;5105236;28;20186;-72
2022/06/04 09:54:50;;;;;;;12.48;7.85;;;18.20;99.90;;;;;;5078524;28;20135;-73
2022/06/04 09:57:29;;;;;;;8.57;7.05;;;18.30;99.90;;;;;;5100937;28;20043;-73
2022/06/04 09:59:57;;;;;;;10.13;6.80;;;18.40;99.90;;;;;;5104250;28;20475;-73
2022/06/04 10:02:24;;;;;;;10.48;6.70;;;18.50;99.90;;;;;;5096988;28;20044;-75
2022/06/04 10:05:00;;;;;;;10.07;7.82;;;18.50;99.90;;;;;;5104412;28;20039;-74
2022/06/04 10:07:33;;;;;;;11.80;8.43;;;18.60;99.90;;;;;;5084092;28;20130;-74
2022/06/04 10:10:01;;;;;;;9.10;7.65;;;18.60;99.90;;;;;;5083109;28;20079;-72
2022/06/04 10:15:41;;;;;;;10.30;7.50;;;18.80;99.90;;;;;;5084738;28;20044;-72
2022/06/04 10:18:23;;;;;;;11.32;7.43;;;18.90;99.90;;;;;;5081249;28;20039;-73
2022/06/04 10:21:32;;;;;;;8.23;7.07;;;19.10;99.90;;;;;;5104300;28;20044;-72
2022/06/04 10:24:00;;;;;;;13.35;7.50;;;19.10;99.90;;;;;;4994504;28;20088;-76
2022/06/04 10:26:46;;;;;;;7.72;6.20;;;19.20;99.90;;;;;;5080790;28;20055;-73
2022/06/04 10:29:24;;;;;;;9.00;7.63;;;19.30;99.90;;;;;;5104515;28;20063;-73
2022/06/04 10:32:13;;;;;;;15.55;6.78;;;19.50;99.90;;;;;;5106431;28;20516;-73
2022/06/04 10:34:51;;;;;;;8.25;6.32;;;19.50;99.90;;;;;;5102964;28;20399;-72
2022/06/04 10:37:48;;;;;;;8.38;7.20;;;19.50;99.90;;;;;;5102669;28;20043;-74
2022/06/04 10:40:48;;;;;;;9.90;6.40;;;19.60;99.90;;;;;;5094485;28;20040;-74
2022/06/04 10:43:44;;;;;;;11.38;6.85;;;19.70;99.90;;;;;;5105927;28;20150;-75
2022/06/04 10:46:35;;;;;;;8.93;6.70;;;19.90;99.90;;;;;;5092111;28;20044;-72
2022/06/04 10:49:30;;;;;;;8.88;6.68;;;20.00;99.90;;;;;;5095407;28;20039;-73
2022/06/04 10:52:26;;;;;;;9.05;6.65;;;20.10;99.90;;;;;;5107739;28;20052;-73
2022/06/04 10:55:20;;;;;;;9.23;6.93;;;20.20;99.90;;;;;;5104735;28;20599;-72
2022/06/04 10:58:11;;;;;;;7.60;6.30;;;20.30;99.90;;;;;;5104753;28;20538;-71
2022/06/04 11:01:04;;;;;;;8.18;7.25;;;20.30;99.90;;;;;;5090881;28;20032;-72
2022/06/04 11:03:52;;;;;;;12.20;7.78;;;20.30;99.90;;;;;;5097671;28;20051;-72
2022/06/04 11:06:29;;;;;;;9.85;7.70;;;20.30;99.90;;;;;;5108793;28;20578;-73
2022/06/04 11:09:08;;;;;;;9.35;6.95;;;20.30;99.90;;;;;;5094616;28;20071;-74
2022/06/04 11:11:41;;;;;;;10.10;7.90;;;20.50;99.90;;;;;;5101330;28;20512;-77
2022/06/04 11:14:46;;;;;;;9.02;6.43;;;20.60;99.90;;;;;;5099925;28;20047;-74
2022/06/04 11:17:44;;;;;;;8.50;6.13;;;20.70;99.90;;;;;;5090311;28;20751;-72
2022/06/04 11:20:15;;;;;;;10.02;7.03;;;20.80;99.90;;;;;;5097535;28;20047;-73
2022/06/04 11:22:50;;;;;;;9.38;6.40;;;20.90;99.90;;;;;;5094096;28;20578;-73
2022/06/04 11:25:30;;;;;;;9.68;7.13;;;21.00;99.90;;;;;;5108790;28;20092;-74
2022/06/04 11:28:07;;;;;;;11.35;7.20;;;21.00;99.90;;;;;;5095119;28;20054;-73
2022/06/04 11:31:01;;;;;;;10.52;7.78;;;21.10;99.90;;;;;;5079264;28;20127;-72
2022/06/04 11:34:01;;;;;;;9.70;7.40;;;21.00;98.80;;;;;;5088784;28;20079;-75
2022/06/04 11:36:38;;;;;;;7.78;6.20;;;20.90;99.90;;;;;;5093749;28;20046;-72
2022/06/04 11:39:14;;;;;;;8.60;6.50;;;21.00;99.90;;;;;;5107571;28;20078;-72
2022/06/04 11:42:00;;;;;;;6.70;5.30;;;21.10;99.70;;;;;;5107938;28;20424;-72
2022/06/04 11:44:32;;;;;;;9.10;5.63;;;21.20;99.70;;;;;;5091223;28;20286;-72
2022/06/04 11:47:20;;;;;;;7.07;5.22;;;21.20;98.30;;;;;;5090592;28;20585;-72
2022/06/04 11:49:57;;;;;;;6.85;5.00;;;21.20;97.80;;;;;;5074893;28;20044;-73
2022/06/04 11:52:26;;;;;;;;;;;21.30;98.80;;;;;;5106692;28;20036;-74
2022/06/04 11:55:04;;;;;;;7.53;5.13;;;21.30;98.50;;;;;;5108706;28;19927;-74
2022/06/04 11:57:39;;;;;;;7.53;4.40;;;21.40;98.30;;;;;;5109546;28;20043;-73
2022/06/04 12:00:29;;;;;;;5.25;4.03;;;21.40;95.50;;;;;;5082403;28;20055;-74
2022/06/04 12:03:31;;;;;;;6.07;4.22;;;21.50;96.10;;;;;;5077828;28;20075;-73
2022/06/04 12:06:04;;;;;;;5.22;4.35;;;21.50;93.90;;;;;;5016070;28;21166;-72
2022/06/04 12:08:51;;;;;;;7.45;4.57;;;21.50;94.10;;;;;;5073206;28;20486;-71
2022/06/04 12:11:26;;;;;;;6.45;4.40;;;21.50;91.90;;;;;;5088373;28;20052;-72
2022/06/04 12:13:59;;;;;;;5.25;4.22;;;21.60;95.90;;;;;;5101881;28;20047;-72
2022/06/04 12:16:34;;;;;;;7.22;4.70;;;21.70;95.10;;;;;;5086559;28;20036;-72
2022/06/04 12:25:18;;;;;;;7.22;4.85;;;22.10;93.60;;;;;;5092172;28;20124;-76
2022/06/04 12:28:30;;;;;;;8.30;4.55;;;22.10;91.10;;;;;;5112022;28;20108;-76
2022/06/04 12:31:00;;;;;;;6.68;4.05;;;22.10;93.90;;;;;;5082530;28;20533;-74
2022/06/04 12:33:40;;;;;;;8.57;4.63;;;22.20;92.80;;;;;;5091860;28;20206;-73
2022/06/04 12:36:22;;;;;;;5.88;4.05;;;22.30;91.20;;;;;;5090652;28;20047;-75
2022/06/04 12:38:59;;;;;;;5.78;3.80;;;22.40;92.40;;;;;;5100810;28;20066;-76
2022/06/04 12:41:37;;;;;;;7.13;3.65;;;22.60;91.10;;;;;;5084363;28;20386;-74
2022/06/04 12:44:04;;;;;;;5.88;3.38;;;22.70;85.30;;;;;;5093782;28;20540;-73
2022/06/04 12:46:33;;;;;;;5.03;3.58;;;22.80;86.20;;;;;;5107178;28;20046;-73
2022/06/04 12:48:59;;;;;;;5.22;3.90;;;22.90;81.00;;;;;;5099369;28;20028;-72
2022/06/04 12:51:43;;;;;;;5.78;3.90;;;23.00;81.00;;;;;;5110839;28;20394;-72
2022/06/04 12:54:33;;;;;;;5.20;3.65;;;23.00;74.20;;;;;;5093357;28;20126;-72
2022/06/04 12:57:11;;;;;;;4.30;3.90;;;23.10;82.50;;;;;;5094609;28;20131;-71
2022/06/04 12:59:46;;;;;;;5.97;3.92;;;23.10;78.80;;;;;;5086429;28;20044;-72
2022/06/04 13:02:28;;;;;;;6.80;3.70;;;23.10;81.20;;;;;;5101186;28;20441;-71
2022/06/04 13:05:10;;;;;;;6.72;3.97;;;23.20;82.40;;;;;;5106421;28;20083;-71
2022/06/04 13:07:47;;;;;;;5.28;3.30;;;23.30;79.00;;;;;;5090943;28;20075;-72
2022/06/04 13:10:56;;;;;;;7.43;3.70;;;23.30;75.80;;;;;;5092522;28;20123;-72
2022/06/04 13:13:33;;;;;;;6.40;4.10;;;23.40;77.90;;;;;;4972693;28;20082;-73
2022/06/04 13:16:04;;;;;;;5.85;3.50;;;23.50;75.00;;;;;;4999534;28;20046;-74
2022/06/04 13:18:39;;;;;;;7.40;3.92;;;23.60;78.10;;;;;;5064429;28;20553;-71
2022/06/04 13:21:18;;;;;;;6.47;3.42;;;23.80;72.90;;;;;;5106388;28;20050;-71
2022/06/04 13:23:51;;;;;;;6.25;3.60;;;23.80;74.70;;;;;;5080893;28;20052;-73
2022/06/04 13:26:37;;;;;;;4.72;3.90;;;23.90;73.10;;;;;;5105087;28;20044;-72
2022/06/04 13:29:26;;;;;;;4.85;3.50;;;24.00;73.50;;;;;;5101534;28;20440;-72
2022/06/04 13:32:00;;;;;;;5.97;3.63;;;24.00;71.50;;;;;;5083066;28;20055;-70